createdAt,value
2018-10-18T16:33:04.636Z,71.60
2018-10-18T16:35:32.886Z,73.20
2018-10-18T16:38:01.197Z,74.50
2018-10-18T16:40:29.489Z,75.10
2018-10-18T16:42:57.715Z,75.60
2018-10-18T16:45:25.991Z,76.10
2018-10-18T16:47:54.375Z,76.50
2018-10-18T16:50:22.486Z,76.80
2018-10-18T16:52:50.758Z,77.30
2018-10-18T16:55:18.978Z,77.40
2018-10-18T16:57:47.198Z,77.50
2018-10-18T17:00:15.503Z,77.90
2018-10-18T17:02:43.675Z,78.10
2018-10-18T17:05:11.901Z,78.40
2018-10-18T17:07:40.174Z,78.60
2018-10-18T17:10:08.482Z,78.90
2018-10-18T17:12:36.668Z,79.30
2018-10-18T17:15:05.674Z,79.50
2018-10-18T17:17:34.267Z,79.80
2018-10-18T17:20:02.611Z,80.00
2018-10-18T17:22:30.908Z,80.20
2018-10-18T17:24:59.218Z,80.30
2018-10-18T17:27:27.643Z,80.50
2018-10-18T17:29:55.772Z,80.60
2018-10-18T17:32:23.999Z,81.00
2018-10-18T17:34:52.271Z,81.10
2018-10-18T17:37:20.531Z,81.40
2018-10-18T17:39:49.850Z,81.50
2018-10-18T17:42:18.242Z,81.70
2018-10-18T17:44:47.084Z,82.00
2018-10-18T17:47:15.503Z,82.00
2018-10-18T17:49:43.710Z,82.10
2018-10-18T17:52:12.077Z,82.30
2018-10-18T17:54:40.243Z,82.50
2018-10-18T17:57:08.480Z,82.80
2018-10-18T17:59:36.815Z,82.90
2018-10-18T18:02:05.292Z,83.10
2018-10-18T18:04:34.320Z,83.20
2018-10-18T18:07:02.736Z,83.30
2018-10-18T18:09:31.449Z,83.40
2018-10-18T18:11:59.740Z,83.70
2018-10-18T18:14:28.372Z,83.90
2018-10-18T18:16:56.661Z,84.00
2018-10-18T18:19:24.888Z,84.10
2018-10-18T18:21:53.218Z,84.10
2018-10-18T18:24:21.464Z,84.30
2018-10-18T18:26:49.828Z,84.60
2018-10-18T18:29:18.945Z,84.40
2018-10-18T18:31:48.149Z,84.50
2018-10-18T18:34:16.415Z,84.60
2018-10-18T18:36:44.666Z,84.70
2018-10-18T18:39:12.979Z,84.80
2018-10-18T18:41:42.387Z,84.80
2018-10-18T18:44:10.721Z,84.90
2018-10-18T18:46:39.070Z,85.00
2018-10-18T18:49:07.375Z,85.00
2018-10-18T18:51:35.867Z,85.20
2018-10-18T18:54:04.199Z,85.20
2018-10-18T18:56:32.471Z,85.20
2018-10-18T18:59:00.836Z,85.30
2018-10-18T19:01:29.128Z,85.40
2018-10-18T19:03:58.131Z,85.50
2018-10-18T19:06:26.443Z,85.40
2018-10-18T19:08:54.734Z,85.40
2018-10-18T19:11:22.971Z,85.40
2018-10-18T19:13:51.373Z,85.60
2018-10-18T19:16:19.755Z,85.80
2018-10-18T19:18:48.723Z,85.90
2018-10-18T19:21:17.033Z,86.00
2018-10-18T19:23:45.343Z,86.10
2018-10-18T19:26:13.744Z,86.20
2018-10-18T19:28:42.048Z,86.30
2018-10-18T19:31:10.295Z,86.60
2018-10-18T19:33:38.573Z,86.70
2018-10-18T19:36:06.812Z,86.90
2018-10-18T19:38:35.196Z,86.50
2018-10-18T19:41:10.257Z,86.60
2018-10-18T19:43:38.528Z,86.60
2018-10-18T19:46:07.451Z,86.60
2018-10-18T19:48:35.733Z,86.80
2018-10-18T19:51:04.048Z,86.80
2018-10-18T19:53:32.331Z,86.80
2018-10-18T19:56:00.663Z,86.90
2018-10-18T19:58:29.651Z,87.00
2018-10-18T20:01:04.227Z,86.90
2018-10-18T20:03:32.478Z,87.00
2018-10-18T20:06:00.771Z,87.10
2018-10-18T20:08:29.189Z,87.00
2018-10-18T20:10:57.432Z,87.10
2018-10-18T20:13:25.707Z,87.10
2018-10-18T20:15:55.020Z,87.10
2018-10-18T20:18:23.294Z,87.10
2018-10-18T20:20:51.520Z,87.10
2018-10-18T20:23:19.815Z,87.00
2018-10-18T20:25:48.328Z,87.10
2018-10-18T20:28:16.404Z,87.00
2018-10-18T20:30:44.713Z,87.00
2018-10-18T20:33:13.074Z,87.20
2018-10-18T20:35:41.306Z,87.20
2018-10-18T20:38:09.509Z,87.10
2018-10-18T20:40:37.776Z,87.10
2018-10-18T20:43:12.572Z,87.10
2018-10-18T20:45:40.787Z,87.10
2018-10-18T20:48:09.313Z,87.00
2018-10-18T20:50:37.482Z,87.10
2018-10-18T20:53:05.848Z,87.30
2018-10-18T20:55:34.079Z,87.30
2018-10-18T20:58:02.307Z,87.20
2018-10-18T21:00:31.408Z,87.20
2018-10-18T21:03:02.671Z,87.10
2018-10-18T21:05:30.965Z,87.00
2018-10-18T21:07:59.235Z,86.90
2018-10-18T21:10:27.599Z,87.00
2018-10-18T21:12:55.877Z,87.00
2018-10-18T21:15:24.167Z,87.00
2018-10-18T21:17:52.418Z,86.90
2018-10-18T21:20:20.660Z,86.90
2018-10-18T21:22:48.999Z,86.80
2018-10-18T21:25:17.283Z,86.90
2018-10-18T21:27:45.606Z,87.10
2018-10-18T21:30:13.827Z,87.30
2018-10-18T21:32:42.127Z,87.10
2018-10-18T21:35:10.538Z,87.30
2018-10-18T21:37:38.759Z,87.30
2018-10-18T21:40:07.014Z,87.60
2018-10-18T21:42:35.297Z,87.70
2018-10-18T21:45:04.752Z,87.60
2018-10-18T21:47:33.151Z,87.70
2018-10-18T21:50:01.461Z,87.60
2018-10-18T21:52:29.720Z,87.60
2018-10-18T21:54:58.033Z,87.60
2018-10-18T21:57:26.336Z,87.70
2018-10-18T21:59:54.604Z,87.80
2018-10-18T22:02:22.872Z,87.70
2018-10-18T22:04:51.909Z,87.60
2018-10-18T22:07:20.172Z,87.50
2018-10-18T22:09:48.442Z,87.60
2018-10-18T22:12:16.708Z,87.80
2018-10-18T22:14:44.986Z,87.70
2018-10-18T22:17:13.328Z,87.70
2018-10-18T22:19:41.605Z,87.60
2018-10-18T22:22:09.935Z,87.50
2018-10-18T22:24:38.219Z,87.60
2018-10-18T22:27:06.506Z,87.80
2018-10-18T22:29:34.764Z,88.00
2018-10-18T22:32:03.046Z,88.10
2018-10-18T22:34:31.277Z,88.00
2018-10-18T22:36:59.511Z,88.20
2018-10-18T22:39:27.780Z,88.20
2018-10-18T22:41:56.188Z,88.30
2018-10-18T22:44:24.504Z,88.40
2018-10-18T22:46:52.816Z,88.30
2018-10-18T22:49:21.024Z,88.10
2018-10-18T22:51:49.296Z,88.40
2018-10-18T22:54:17.661Z,88.20
2018-10-18T22:56:46.375Z,88.40
2018-10-18T22:59:14.756Z,88.80
2018-10-18T23:01:42.975Z,89.00
2018-10-18T23:04:14.192Z,89.20
2018-10-18T23:06:42.457Z,89.30
2018-10-18T23:09:12.000Z,89.60
2018-10-18T23:11:40.195Z,89.70
2018-10-18T23:14:09.453Z,90.10
2018-10-18T23:16:38.411Z,90.10
2018-10-18T23:19:07.477Z,90.10
2018-10-18T23:21:35.711Z,90.10
2018-10-18T23:24:04.495Z,90.30
2018-10-18T23:26:32.847Z,90.10
2018-10-18T23:29:01.197Z,90.10
2018-10-18T23:31:29.400Z,90.30
2018-10-18T23:33:57.685Z,90.30
2018-10-18T23:36:25.992Z,90.30
2018-10-18T23:38:54.772Z,90.30
2018-10-18T23:41:23.076Z,90.40
2018-10-18T23:43:51.279Z,90.40
2018-10-18T23:46:19.562Z,90.50
2018-10-18T23:48:47.883Z,90.60
2018-10-18T23:51:16.292Z,90.80
2018-10-18T23:53:44.512Z,90.90
2018-10-18T23:56:13.363Z,91.00
2018-10-18T23:58:41.629Z,91.20
